Time;durP1;ratioP1;P1;durP2;ratioP2;P2;SDS_P1;SDS_P2;PMS_P1;PMS_P2;Temp;Humidity;BMP_temperature;BMP_pressure;BME280_temperature;BME280_humidity;BME280_pressure;Samples;Min_cycle;Max_cycle;Signal;HPM_P1;HPM_P2
2023/07/07 00:02:24;;;;;;;;;;;20.60;66.30;;;;;;4970189;28;1370;-68
2023/07/07 00:04:50;;;;;;;;;;;20.60;66.30;;;;;;4969507;28;1006;-68
2023/07/07 00:07:15;;;;;;;;;;;20.60;66.30;;;;;;4970786;28;1007;-68
2023/07/07 00:09:41;;;;;;;;;;;20.60;66.30;;;;;;4966802;28;796;-68
2023/07/07 00:12:07;;;;;;;;;;;20.60;66.30;;;;;;4969677;28;900;-68
2023/07/07 00:14:32;;;;;;;;;;;20.60;66.30;;;;;;4971041;28;1981;-67
2023/07/07 00:17:01;;;;;;;;;;;20.60;66.30;;;;;;4970988;28;856;-68
2023/07/07 00:19:32;;;;;;;;;;;20.60;66.30;;;;;;4969889;28;1369;-68
2023/07/07 00:21:58;;;;;;;;;;;20.60;66.30;;;;;;4968857;28;907;-68
2023/07/07 00:24:25;;;;;;;;;;;20.60;66.30;;;;;;4966125;28;1806;-68
2023/07/07 00:26:50;;;;;;;;;;;20.60;66.30;;;;;;4966013;28;1519;-68
2023/07/07 00:29:16;;;;;;;;;;;20.60;66.30;;;;;;4969389;28;1345;-68
2023/07/07 00:31:41;;;;;;;;;;;20.60;66.40;;;;;;4969725;28;1202;-68
2023/07/07 00:34:07;;;;;;;;;;;20.60;66.30;;;;;;4969782;28;1906;-68
2023/07/07 00:36:32;;;;;;;;;;;20.60;66.40;;;;;;4970085;28;1320;-68
2023/07/07 00:38:58;;;;;;;;;;;20.60;66.30;;;;;;4967021;28;1428;-68
2023/07/07 00:41:23;;;;;;;;;;;20.60;66.40;;;;;;4967662;28;1333;-68
2023/07/07 00:44:02;;;;;;;;;;;20.60;66.40;;;;;;4968380;28;1366;-68
2023/07/07 00:46:27;;;;;;;;;;;20.60;66.40;;;;;;4963170;28;1620;-68
2023/07/07 00:48:53;;;;;;;;;;;20.60;66.40;;;;;;4965633;28;1640;-68
2023/07/07 00:51:20;;;;;;;;;;;20.60;66.40;;;;;;4983280;28;1424;-68
2023/07/07 00:53:45;;;;;;;;;;;20.60;66.40;;;;;;4969503;28;1879;-68
2023/07/07 00:56:12;;;;;;;;;;;20.60;66.40;;;;;;4988966;28;1613;-68
2023/07/07 00:58:37;;;;;;;;;;;20.60;66.40;;;;;;4971802;28;1162;-68
2023/07/07 01:01:06;;;;;;;;;;;20.60;66.40;;;;;;4972963;28;951;-68
2023/07/07 01:03:39;;;;;;;;;;;20.60;66.50;;;;;;4972442;28;1427;-68
2023/07/07 01:06:06;;;;;;;;;;;20.60;66.50;;;;;;4974268;28;836;-68
2023/07/07 01:08:32;;;;;;;;;;;20.60;66.50;;;;;;4989002;28;875;-68
2023/07/07 01:10:57;;;;;;;;;;;20.60;66.50;;;;;;4973466;28;943;-68
2023/07/07 01:13:23;;;;;;;;;;;20.60;66.50;;;;;;4972640;28;1918;-68
2023/07/07 01:15:50;;;;;;;;;;;20.60;66.50;;;;;;4986861;28;860;-68
2023/07/07 01:18:19;;;;;;;;;;;20.60;66.50;;;;;;4988383;28;1310;-68
2023/07/07 01:21:12;;;;;;;;;;;20.60;66.50;;;;;;4988295;28;840;-68
2023/07/07 01:23:49;;;;;;;;;;;20.60;66.50;;;;;;4972010;28;1281;-68
2023/07/07 01:26:22;;;;;;;;;;;20.60;66.50;;;;;;4972471;28;899;-68
2023/07/07 01:29:06;;;;;;;;;;;20.60;66.50;;;;;;4970017;28;950;-68
2023/07/07 01:31:46;;;;;;;;;;;20.60;66.50;;;;;;4972516;28;923;-68
2023/07/07 01:34:12;;;;;;;;;;;20.60;66.50;;;;;;4971202;28;1911;-68
2023/07/07 01:36:37;;;;;;;;;;;20.60;66.60;;;;;;4987988;28;1194;-68
2023/07/07 01:39:03;;;;;;;;;;;20.60;66.60;;;;;;4971480;28;939;-68
2023/07/07 01:41:32;;;;;;;;;;;20.60;66.60;;;;;;4971988;28;844;-68
2023/07/07 01:44:16;;;;;;;;;;;20.60;67.30;;;;;;4972084;28;1394;-68
2023/07/07 01:46:48;;;;;;;;;;;20.60;66.70;;;;;;4973322;28;871;-67
2023/07/07 01:49:13;;;;;;;;;;;20.60;66.70;;;;;;4972010;28;829;-68
2023/07/07 01:51:52;;;;;;;;;;;20.60;66.70;;;;;;4970648;28;935;-68
2023/07/07 01:54:18;;;;;;;;;;;20.60;66.60;;;;;;4971613;28;1910;-67
2023/07/07 01:56:44;;;;;;;;;;;20.60;66.70;;;;;;4971544;28;1298;-68
2023/07/07 01:59:09;;;;;;;;;;;20.60;66.70;;;;;;4984324;28;987;-67
2023/07/07 02:01:34;;;;;;;;;;;20.60;66.60;;;;;;4985669;28;975;-68
2023/07/07 02:04:00;;;;;;;;;;;20.60;66.60;;;;;;4972013;28;1332;-68
2023/07/07 02:06:25;;;;;;;;;;;20.60;66.70;;;;;;4968914;28;1343;-68
2023/07/07 02:08:51;;;;;;;;;;;20.60;66.60;;;;;;4971440;28;1297;-68
2023/07/07 02:11:16;;;;;;;;;;;20.60;66.70;;;;;;4971023;28;1382;-67
2023/07/07 02:13:43;;;;;;;;;;;20.60;66.70;;;;;;4969741;28;1927;-67
2023/07/07 02:16:08;;;;;;;;;;;20.60;66.70;;;;;;4969165;28;1290;-67
2023/07/07 02:18:37;;;;;;;;;;;20.60;66.70;;;;;;4983239;28;1483;-67
2023/07/07 02:21:06;;;;;;;;;;;20.60;66.70;;;;;;4971825;28;1340;-67
2023/07/07 02:23:32;;;;;;;;;;;20.60;66.70;;;;;;4969822;28;1416;-67
2023/07/07 02:25:57;;;;;;;;;;;20.60;66.70;;;;;;4971162;28;1414;-69
2023/07/07 02:28:23;;;;;;;;;;;20.60;66.70;;;;;;4971004;28;1411;-68
2023/07/07 02:30:48;;;;;;;;;;;20.60;66.70;;;;;;4971691;28;1368;-69
2023/07/07 02:33:15;;;;;;;;;;;20.60;66.80;;;;;;4986991;28;1422;-68
2023/07/07 02:35:40;;;;;;;;;;;20.60;66.80;;;;;;4971178;28;1366;-67
2023/07/07 02:38:06;;;;;;;;;;;20.60;66.80;;;;;;4971645;28;1462;-68
2023/07/07 02:40:31;;;;;;;;;;;20.60;66.80;;;;;;4972653;28;888;-68
2023/07/07 02:42:57;;;;;;;;;;;20.60;66.70;;;;;;4987434;28;1284;-68
2023/07/07 02:45:22;;;;;;;;;;;20.60;66.80;;;;;;4972803;28;871;-68
2023/07/07 02:47:48;;;;;;;;;;;20.60;66.80;;;;;;4986288;28;804;-68
2023/07/07 02:50:13;;;;;;;;;;;20.60;66.80;;;;;;4972451;28;938;-68
2023/07/07 02:52:39;;;;;;;;;;;20.60;66.80;;;;;;4972059;28;1268;-68
2023/07/07 02:55:04;;;;;;;;;;;20.60;66.80;;;;;;4972305;28;1961;-68
2023/07/07 02:57:30;;;;;;;;;;;20.60;66.80;;;;;;4966489;28;814;-67
2023/07/07 02:59:55;;;;;;;;;;;20.60;66.80;;;;;;4971216;28;938;-67
2023/07/07 03:02:20;;;;;;;;;;;20.60;66.80;;;;;;4971094;28;1281;-68
2023/07/07 03:04:47;;;;;;;;;;;20.50;66.80;;;;;;4970874;28;808;-67
2023/07/07 03:07:12;;;;;;;;;;;20.60;66.80;;;;;;4972036;28;830;-67
2023/07/07 03:09:38;;;;;;;;;;;20.60;66.80;;;;;;4971234;28;1089;-67
2023/07/07 03:12:04;;;;;;;;;;;20.60;66.90;;;;;;4971923;28;1600;-69
2023/07/07 03:14:29;;;;;;;;;;;20.60;66.90;;;;;;4971347;28;1962;-69
2023/07/07 03:16:58;;;;;;;;;;;20.60;66.90;;;;;;4971480;28;799;-68
2023/07/07 03:19:23;;;;;;;;;;;20.60;66.90;;;;;;4971000;28;1503;-68
2023/07/07 03:21:49;;;;;;;;;;;20.60;66.90;;;;;;4970510;28;805;-67
2023/07/07 03:24:14;;;;;;;;;;;20.60;66.90;;;;;;4969500;28;1291;-67
2023/07/07 03:26:40;;;;;;;;;;;20.60;66.90;;;;;;4969559;28;913;-67
2023/07/07 03:29:05;;;;;;;;;;;20.60;66.90;;;;;;4968932;28;983;-67
2023/07/07 03:31:31;;;;;;;;;;;20.60;66.90;;;;;;4972061;28;931;-67
2023/07/07 03:33:57;;;;;;;;;;;20.60;66.90;;;;;;4970015;28;2010;-67
2023/07/07 03:36:24;;;;;;;;;;;20.60;66.90;;;;;;4970575;28;904;-67
2023/07/07 03:38:49;;;;;;;;;;;20.50;66.80;;;;;;4969922;28;1638;-67
2023/07/07 03:41:16;;;;;;;;;;;20.60;66.90;;;;;;4970676;28;822;-68
2023/07/07 03:43:45;;;;;;;;;;;20.60;67.00;;;;;;4985659;28;1813;-67
2023/07/07 03:46:11;;;;;;;;;;;20.60;66.90;;;;;;4985400;28;852;-68
2023/07/07 03:48:36;;;;;;;;;;;20.60;66.90;;;;;;4971164;28;999;-69
2023/07/07 03:51:02;;;;;;;;;;;20.60;66.90;;;;;;4971501;28;849;-68
2023/07/07 03:53:28;;;;;;;;;;;20.60;67.00;;;;;;4985121;28;1996;-70
2023/07/07 03:55:54;;;;;;;;;;;20.60;67.00;;;;;;4970401;28;892;-69
2023/07/07 03:58:19;;;;;;;;;;;20.60;67.00;;;;;;4986234;28;829;-69
2023/07/07 04:00:48;;;;;;;;;;;20.60;67.00;;;;;;4970997;28;896;-69
2023/07/07 04:03:14;;;;;;;;;;;20.60;67.00;;;;;;4968649;28;1338;-69
2023/07/07 04:05:40;;;;;;;;;;;20.60;67.00;;;;;;4968028;28;912;-68
2023/07/07 04:08:06;;;;;;;;;;;20.60;67.00;;;;;;4968920;28;843;-69
2023/07/07 04:10:31;;;;;;;;;;;20.60;67.00;;;;;;4970103;28;801;-69
2023/07/07 04:12:57;;;;;;;;;;;20.60;67.00;;;;;;4970947;28;1253;-70
2023/07/07 04:15:22;;;;;;;;;;;20.60;67.00;;;;;;4971763;28;1979;-68
2023/07/07 04:17:48;;;;;;;;;;;20.60;67.00;;;;;;4972457;28;1190;-69
2023/07/07 04:20:13;;;;;;;;;;;20.50;67.00;;;;;;4969811;28;1140;-69
2023/07/07 04:22:39;;;;;;;;;;;20.60;67.00;;;;;;4969283;28;1256;-70
2023/07/07 04:25:08;;;;;;;;;;;20.50;67.00;;;;;;4971292;28;991;-69
2023/07/07 04:27:34;;;;;;;;;;;20.60;67.10;;;;;;4970671;28;1351;-67
2023/07/07 04:29:59;;;;;;;;;;;20.50;67.00;;;;;;4969124;28;912;-68
2023/07/07 04:32:25;;;;;;;;;;;20.60;67.10;;;;;;4971934;28;1291;-68
2023/07/07 04:34:50;;;;;;;;;;;20.60;67.10;;;;;;4974414;28;1899;-68
2023/07/07 04:37:16;;;;;;;;;;;20.60;67.10;;;;;;4973549;28;1166;-69
2023/07/07 04:39:41;;;;;;;;;;;20.50;67.00;;;;;;4975049;28;909;-68
2023/07/07 04:42:07;;;;;;;;;;;20.50;67.00;;;;;;4974510;28;853;-68
2023/07/07 04:44:32;;;;;;;;;;;20.50;67.00;;;;;;4973388;28;1372;-68
2023/07/07 04:46:58;;;;;;;;;;;20.50;67.00;;;;;;4973883;28;778;-69
2023/07/07 04:49:23;;;;;;;;;;;20.50;67.00;;;;;;4970980;28;833;-68
2023/07/07 04:51:49;;;;;;;;;;;20.50;67.10;;;;;;4974294;28;931;-68
2023/07/07 04:54:14;;;;;;;;;;;20.50;67.10;;;;;;4974024;28;1899;-68
2023/07/07 04:56:40;;;;;;;;;;;20.60;67.10;;;;;;4974001;28;881;-68
2023/07/07 04:59:06;;;;;;;;;;;20.50;67.10;;;;;;4973782;28;807;-69
2023/07/07 05:01:32;;;;;;;;;;;20.60;67.20;;;;;;4989154;28;871;-68
2023/07/07 05:03:58;;;;;;;;;;;20.50;67.10;;;;;;4987809;28;1247;-67
2023/07/07 05:06:24;;;;;;;;;;;20.60;67.10;;;;;;4974325;28;888;-69
2023/07/07 05:08:49;;;;;;;;;;;20.50;67.00;;;;;;4973704;28;817;-69
2023/07/07 05:11:16;;;;;;;;;;;20.60;67.40;;;;;;4970231;28;841;-68
2023/07/07 05:13:41;;;;;;;;;;;20.60;67.00;;;;;;4972258;28;1906;-68
2023/07/07 05:16:08;;;;;;;;;;;20.50;67.70;;;;;;4973799;28;975;-68
2023/07/07 05:18:33;;;;;;;;;;;20.60;66.70;;;;;;4988277;28;1284;-70
2023/07/07 05:20:59;;;;;;;;;;;20.60;66.60;;;;;;4970028;28;1831;-72
2023/07/07 05:23:24;;;;;;;;;;;20.50;66.30;;;;;;4971728;28;1825;-67
2023/07/07 05:25:50;;;;;;;;;;;20.50;66.00;;;;;;4973378;28;1872;-67
2023/07/07 05:28:15;;;;;;;;;;;20.60;66.00;;;;;;4972436;28;1229;-67
2023/07/07 05:30:41;;;;;;;;;;;20.60;66.20;;;;;;4972778;28;1018;-68
2023/07/07 05:33:07;;;;;;;;;;;20.50;66.00;;;;;;4972000;28;1295;-68
2023/07/07 05:35:32;;;;;;;;;;;20.50;65.80;;;;;;4988329;28;1973;-72
2023/07/07 05:38:00;;;;;;;;;;;20.50;65.70;;;;;;4971369;28;904;-70
2023/07/07 05:40:26;;;;;;;;;;;20.50;65.80;;;;;;4972371;28;884;-66
2023/07/07 05:42:51;;;;;;;;;;;20.50;65.50;;;;;;4973421;28;1277;-67
2023/07/07 05:45:16;;;;;;;;;;;20.60;65.40;;;;;;4972109;28;960;-69
2023/07/07 05:47:42;;;;;;;;;;;20.50;65.10;;;;;;4987545;28;884;-68
2023/07/07 05:50:08;;;;;;;;;;;20.50;65.00;;;;;;4973522;28;904;-68
2023/07/07 05:52:33;;;;;;;;;;;20.50;65.20;;;;;;4971527;28;1261;-68
2023/07/07 05:54:59;;;;;;;;;;;20.50;64.90;;;;;;4971527;28;1919;-68
2023/07/07 05:57:24;;;;;;;;;;;20.60;64.60;;;;;;4972708;28;852;-67
2023/07/07 05:59:50;;;;;;;;;;;20.50;64.30;;;;;;4972975;28;1003;-67
2023/07/07 06:02:15;;;;;;;;;;;20.50;63.60;;;;;;4972183;28;857;-67
2023/07/07 06:04:41;;;;;;;;;;;20.50;64.00;;;;;;4973313;28;1238;-69
2023/07/07 06:07:07;;;;;;;;;;;20.50;63.20;;;;;;4971209;28;1027;-68
2023/07/07 06:09:32;;;;;;;;;;;20.50;63.00;;;;;;4970692;28;817;-67
2023/07/07 06:11:57;;;;;;;;;;;20.50;62.90;;;;;;4971146;28;946;-68
2023/07/07 06:14:23;;;;;;;;;;;20.50;62.50;;;;;;4973190;28;1899;-67
2023/07/07 06:16:48;;;;;;;;;;;20.50;62.30;;;;;;4972436;28;1367;-70
2023/07/07 06:19:14;;;;;;;;;;;20.50;62.40;;;;;;4969948;28;1360;-70
2023/07/07 06:21:39;;;;;;;;;;;20.50;62.20;;;;;;4964126;28;2061;-69
2023/07/07 06:24:05;;;;;;;;;;;20.50;62.10;;;;;;4966570;28;1366;-70
2023/07/07 06:26:30;;;;;;;;;;;20.50;62.10;;;;;;4973009;28;884;-69
2023/07/07 06:28:56;;;;;;;;;;;20.50;62.10;;;;;;4972858;28;1204;-67
2023/07/07 06:31:22;;;;;;;;;;;20.50;62.40;;;;;;4972828;28;887;-71
2023/07/07 06:33:48;;;;;;;;;;;20.50;62.40;;;;;;4971947;28;1906;-67
2023/07/07 06:36:13;;;;;;;;;;;20.50;62.20;;;;;;4970954;28;806;-68
2023/07/07 06:38:39;;;;;;;;;;;20.50;62.20;;;;;;4970969;28;948;-72
2023/07/07 06:41:04;;;;;;;;;;;20.50;62.00;;;;;;4972697;28;847;-70
2023/07/07 06:43:30;;;;;;;;;;;20.50;62.00;;;;;;4972085;28;1279;-70
2023/07/07 06:45:56;;;;;;;;;;;20.50;62.00;;;;;;4969349;28;821;-69
2023/07/07 06:48:21;;;;;;;;;;;20.50;61.70;;;;;;4988649;28;813;-70
2023/07/07 06:50:47;;;;;;;;;;;20.50;61.70;;;;;;4972719;28;876;-70
2023/07/07 06:53:14;;;;;;;;;;;20.50;61.70;;;;;;4971005;28;1301;-70
2023/07/07 06:55:40;;;;;;;;;;;20.50;61.50;;;;;;4970832;28;1968;-70
2023/07/07 06:58:05;;;;;;;;;;;20.50;61.80;;;;;;4970939;28;865;-71
2023/07/07 07:00:31;;;;;;;;;;;20.50;61.90;;;;;;4972056;28;903;-70
2023/07/07 07:02:57;;;;;;;;;;;20.50;61.90;;;;;;4971847;28;1271;-70
2023/07/07 07:05:22;;;;;;;;;;;20.50;61.60;;;;;;4985313;28;871;-69
2023/07/07 07:07:48;;;;;;;;;;;20.50;61.80;;;;;;4970262;28;975;-69
2023/07/07 07:10:14;;;;;;;;;;;20.50;61.40;;;;;;4969782;28;908;-69
2023/07/07 07:12:39;;;;;;;;;;;20.60;61.40;;;;;;4971942;28;1257;-72
2023/07/07 07:15:05;;;;;;;;;;;20.60;61.80;;;;;;4971059;28;1910;-74
2023/07/07 07:17:30;;;;;;;;;;;20.50;62.00;;;;;;4971144;28;762;-72
2023/07/07 07:19:56;;;;;;;;;;;20.60;61.00;;;;;;4970725;28;1028;-71
2023/07/07 07:22:21;;;;;;;;;;;20.60;60.30;;;;;;4971894;28;1237;-72
2023/07/07 07:24:47;;;;;;;;;;;20.60;61.00;;;;;;4970735;28;856;-72
2023/07/07 07:27:12;;;;;;;;;;;20.60;60.90;;;;;;4984921;28;1367;-71
2023/07/07 07:29:38;;;;;;;;;;;20.60;60.40;;;;;;4970143;28;884;-70
2023/07/07 07:32:03;;;;;;;;;;;20.60;59.90;;;;;;4970414;28;926;-71
2023/07/07 07:34:30;;;;;;;;;;;20.60;59.20;;;;;;4971353;28;1899;-75
2023/07/07 07:36:56;;;;;;;;;;;20.60;58.60;;;;;;4970464;28;1062;-72
2023/07/07 07:39:21;;;;;;;;;;;20.60;57.80;;;;;;4970334;28;1199;-72
2023/07/07 07:41:47;;;;;;;;;;;20.60;58.40;;;;;;4969183;28;1258;-73
2023/07/07 07:44:16;;;;;;;;;;;20.60;59.00;;;;;;4969532;28;1296;-71
2023/07/07 07:46:42;;;;;;;;;;;20.70;59.10;;;;;;4969163;28;900;-72
2023/07/07 07:49:07;;;;;;;;;;;20.70;58.90;;;;;;4969528;28;940;-72
2023/07/07 07:51:37;;;;;;;;;;;20.70;58.80;;;;;;4970841;28;1055;-72
2023/07/07 07:54:03;;;;;;;;;;;20.70;59.00;;;;;;4969581;28;1970;-71
2023/07/07 07:56:29;;;;;;;;;;;20.70;58.40;;;;;;4969666;28;812;-71
2023/07/07 07:58:54;;;;;;;;;;;20.70;57.50;;;;;;4970150;28;904;-70
2023/07/07 08:01:20;;;;;;;;;;;20.70;57.90;;;;;;4971133;28;1129;-71
2023/07/07 08:03:45;;;;;;;;;;;20.70;58.80;;;;;;4970550;28;1370;-71
2023/07/07 08:06:11;;;;;;;;;;;20.70;58.70;;;;;;4971474;28;860;-71
2023/07/07 08:08:36;;;;;;;;;;;20.70;58.30;;;;;;4975155;28;947;-71
2023/07/07 08:11:02;;;;;;;;;;;20.70;58.40;;;;;;4975225;28;876;-70
2023/07/07 08:13:27;;;;;;;;;;;20.70;57.70;;;;;;4973476;28;1265;-70
2023/07/07 08:15:53;;;;;;;;;;;20.70;58.90;;;;;;4974215;28;852;-72
2023/07/07 08:18:20;;;;;;;;;;;20.70;58.50;;;;;;4973370;28;1261;-71
2023/07/07 08:20:46;;;;;;;;;;;20.70;57.40;;;;;;4973092;28;1550;-71
2023/07/07 08:23:11;;;;;;;;;;;20.70;56.90;;;;;;4972715;28;1333;-71
2023/07/07 08:25:37;;;;;;;;;;;20.70;56.80;;;;;;4974760;28;1222;-71
2023/07/07 08:28:02;;;;;;;;;;;20.80;56.60;;;;;;4973796;28;1293;-72
2023/07/07 08:30:28;;;;;;;;;;;20.80;56.40;;;;;;4972617;28;802;-72
2023/07/07 08:32:54;;;;;;;;;;;20.80;55.60;;;;;;4973719;28;1226;-72
2023/07/07 08:35:19;;;;;;;;;;;20.80;55.40;;;;;;4973234;28;1911;-72
2023/07/07 08:37:45;;;;;;;;;;;20.80;55.70;;;;;;4972722;28;1011;-72
2023/07/07 08:40:15;;;;;;;;;;;20.80;56.00;;;;;;4973337;28;864;-72
2023/07/07 08:42:40;;;;;;;;;;;20.80;55.60;;;;;;4969349;28;1282;-72
2023/07/07 08:45:15;;;;;;;;;;;20.80;56.60;;;;;;4973622;28;855;-72
2023/07/07 08:47:44;;;;;;;;;;;20.90;56.50;;;;;;4973077;28;1348;-72
2023/07/07 08:50:27;;;;;;;;;;;20.80;56.30;;;;;;4974389;28;1706;-72
2023/07/07 08:52:52;;;;;;;;;;;20.90;56.40;;;;;;4971536;28;1289;-72
2023/07/07 08:55:17;;;;;;;;;;;20.80;57.70;;;;;;4972747;28;1962;-72
2023/07/07 08:57:44;;;;;;;;;;;20.80;58.20;;;;;;4974422;28;816;-72
2023/07/07 09:00:27;;;;;;;;;;;20.80;56.80;;;;;;4972662;28;967;-72
2023/07/07 09:03:02;;;;;;;;;;;20.80;54.80;;;;;;4972594;28;1265;-72
2023/07/07 09:05:46;;;;;;;;;;;20.80;55.40;;;;;;4974354;28;908;-72
2023/07/07 09:08:11;;;;;;;;;;;20.90;55.60;;;;;;4973236;28;821;-72
2023/07/07 09:10:43;;;;;;;;;;;20.90;57.40;;;;;;4974353;28;815;-71
2023/07/07 09:13:12;;;;;;;;;;;20.80;58.10;;;;;;4988411;28;1233;-71
2023/07/07 09:15:38;;;;;;;;;;;20.80;58.60;;;;;;4988173;28;1975;-71
2023/07/07 09:18:16;;;;;;;;;;;20.80;57.90;;;;;;4988867;28;1347;-71
2023/07/07 09:20:41;;;;;;;;;;;20.80;55.80;;;;;;4972528;28;817;-71
2023/07/07 09:23:09;;;;;;;;;;;20.80;55.80;;;;;;4988874;28;1350;-71
2023/07/07 09:25:35;;;;;;;;;;;20.90;56.20;;;;;;4972415;28;824;-71
2023/07/07 09:28:02;;;;;;;;;;;20.80;56.00;;;;;;4971458;28;1374;-71
2023/07/07 09:30:37;;;;;;;;;;;20.90;56.20;;;;;;4988825;28;865;-71
2023/07/07 09:33:02;;;;;;;;;;;20.90;54.60;;;;;;4987999;28;1345;-71
2023/07/07 09:35:31;;;;;;;;;;;20.90;53.70;;;;;;4970866;28;1944;-71
2023/07/07 09:38:12;;;;;;;;;;;21.00;52.50;;;;;;4987809;28;2319;-72
2023/07/07 09:40:50;;;;;;;;;;;21.00;53.50;;;;;;4972634;28;1518;-71
2023/07/07 09:43:24;;;;;;;;;;;21.00;55.50;;;;;;4949233;28;1305;-70
2023/07/07 09:45:59;;;;;;;;;;;21.00;50.10;;;;;;4987716;28;885;-71
2023/07/07 09:48:30;;;;;;;;;;;21.00;51.20;;;;;;4973624;28;886;-70
2023/07/07 09:50:58;;;;;;;;;;;21.00;53.00;;;;;;4988238;28;927;-70
2023/07/07 09:53:26;;;;;;;;;;;21.00;55.30;;;;;;4970728;28;1338;-71
2023/07/07 09:55:52;;;;;;;;;;;21.00;55.90;;;;;;4965818;28;1966;-71
2023/07/07 09:58:20;;;;;;;;;;;21.00;56.30;;;;;;4964209;28;926;-71
2023/07/07 10:00:47;;;;;;;;;;;21.00;56.40;;;;;;4971244;28;832;-70
2023/07/07 10:03:31;;;;;;;;;;;21.00;54.70;;;;;;4971881;28;1356;-71
2023/07/07 10:05:57;;;;;;;;;;;21.00;52.90;;;;;;4973069;28;1074;-70
2023/07/07 10:08:22;;;;;;;;;;;21.00;52.00;;;;;;4972081;28;902;-70
2023/07/07 10:10:53;;;;;;;;;;;21.00;53.00;;;;;;4971713;28;864;-71
2023/07/07 10:13:18;;;;;;;;;;;21.00;53.70;;;;;;4983063;28;1408;-71
2023/07/07 10:15:46;;;;;;;;;;;21.00;54.20;;;;;;4967945;28;1970;-72
2023/07/07 10:18:17;;;;;;;;;;;21.00;54.70;;;;;;4971301;28;1369;-71
2023/07/07 10:20:45;;;;;;;;;;;21.00;56.50;;;;;;4970326;28;1185;-72
2023/07/07 10:23:11;;;;;;;;;;;21.00;56.70;;;;;;4970203;28;1241;-70
2023/07/07 10:25:38;;;;;;;;;;;21.00;55.30;;;;;;4987407;28;854;-72
2023/07/07 10:28:03;;;;;;;;;;;21.00;55.60;;;;;;4972058;28;1321;-70
2023/07/07 10:30:29;;;;;;;;;;;21.00;54.00;;;;;;4972232;28;975;-71
2023/07/07 10:32:54;;;;;;;;;;;21.00;54.10;;;;;;4970923;28;1305;-72
2023/07/07 10:35:20;;;;;;;;;;;21.00;53.00;;;;;;4970339;28;1947;-72
2023/07/07 10:37:48;;;;;;;;;;;21.00;52.90;;;;;;4977009;28;1285;-71
2023/07/07 10:40:21;;;;;;;;;;;21.00;53.20;;;;;;4975549;28;1156;-71
2023/07/07 10:42:49;;;;;;;;;;;21.10;53.70;;;;;;4986645;28;1284;-72
2023/07/07 10:45:15;;;;;;;;;;;21.10;54.00;;;;;;4985711;28;884;-72
2023/07/07 10:47:40;;;;;;;;;;;21.00;53.00;;;;;;4987423;28;1351;-72
2023/07/07 10:50:10;;;;;;;;;;;21.10;51.10;;;;;;4972781;28;848;-72
2023/07/07 10:52:55;;;;;;;;;;;21.10;50.10;;;;;;4966186;28;1297;-72
2023/07/07 10:55:31;;;;;;;;;;;21.20;49.60;;;;;;4985076;28;2205;-72
2023/07/07 10:58:03;;;;;;;;;;;21.20;50.80;;;;;;4971291;28;828;-72
2023/07/07 11:00:32;;;;;;;;;;;21.20;51.60;;;;;;4972034;28;771;-72
2023/07/07 11:03:01;;;;;;;;;;;21.20;52.30;;;;;;4985944;28;1337;-72
2023/07/07 11:05:26;;;;;;;;;;;21.20;53.20;;;;;;4972070;28;877;-72
2023/07/07 11:08:10;;;;;;;;;;;21.20;53.30;;;;;;4985071;28;1184;-72
2023/07/07 11:10:55;;;;;;;;;;;21.20;53.30;;;;;;4971817;28;797;-72
2023/07/07 11:13:38;;;;;;;;;;;21.20;53.50;;;;;;4970611;28;1256;-71
2023/07/07 11:16:04;;;;;;;;;;;21.20;53.70;;;;;;4971964;28;903;-71
2023/07/07 11:18:29;;;;;;;;;;;21.20;54.80;;;;;;4970622;28;1252;-71
2023/07/07 11:20:55;;;;;;;;;;;21.10;51.20;;;;;;4967845;28;1173;-71
2023/07/07 11:23:23;;;;;;;;;;;21.20;51.60;;;;;;4970366;28;1257;-70
2023/07/07 11:26:14;;;;;;;;;;;21.20;50.10;;;;;;4971808;28;810;-70
2023/07/07 11:28:46;;;;;;;;;;;21.20;51.20;;;;;;4949147;28;1395;-71
2023/07/07 11:31:26;;;;;;;;;;;21.30;50.60;;;;;;4970104;28;952;-70
2023/07/07 11:33:57;;;;;;;;;;;21.30;51.40;;;;;;4971122;28;1976;-70
2023/07/07 11:36:32;;;;;;;;;;;21.30;53.00;;;;;;4969539;28;879;-70
2023/07/07 11:39:05;;;;;;;;;;;21.30;54.00;;;;;;4970014;28;831;-71
2023/07/07 11:41:30;;;;;;;;;;;21.30;50.30;;;;;;4984859;28;880;-70
2023/07/07 11:43:55;;;;;;;;;;;21.30;50.70;;;;;;4965705;28;1260;-70
2023/07/07 11:46:27;;;;;;;;;;;21.30;49.60;;;;;;4967619;28;852;-70
2023/07/07 11:48:52;;;;;;;;;;;21.40;50.70;;;;;;4970633;28;1042;-70
2023/07/07 11:51:21;;;;;;;;;;;21.40;49.60;;;;;;4971736;28;885;-70
2023/07/07 11:53:47;;;;;;;;;;;21.40;50.00;;;;;;4985473;28;1986;-70
2023/07/07 11:56:24;;;;;;;;;;;21.40;50.20;;;;;;4971672;28;899;-70
2023/07/07 11:58:53;;;;;;;;;;;21.40;50.80;;;;;;4971037;28;830;-72
2023/07/07 12:01:22;;;;;;;;;;;21.40;50.80;;;;;;4971193;28;879;-72
2023/07/07 12:03:50;;;;;;;;;;;21.40;49.80;;;;;;4967777;28;2236;-72
2023/07/07 12:06:18;;;;;;;;;;;21.50;49.60;;;;;;4968594;28;1941;-72
2023/07/07 12:08:56;;;;;;;;;;;21.40;50.20;;;;;;4968239;28;1296;-72
2023/07/07 12:11:22;;;;;;;;;;;21.40;50.80;;;;;;4968576;28;2326;-72
2023/07/07 12:14:10;;;;;;;;;;;21.40;52.40;;;;;;4966563;28;1969;-72
2023/07/07 12:16:36;;;;;;;;;;;21.40;52.70;;;;;;4969617;28;1286;-72
2023/07/07 12:19:14;;;;;;;;;;;21.40;52.50;;;;;;4969441;28;1276;-72
2023/07/07 12:21:39;;;;;;;;;;;21.40;52.90;;;;;;4985136;28;2171;-72
2023/07/07 12:24:40;;;;;;;;;;;21.40;54.00;;;;;;4967487;28;2101;-72
2023/07/07 12:27:11;;;;;;;;;;;21.40;53.70;;;;;;4910207;29;1951;-72
2023/07/07 12:29:37;;;;;;;;;;;21.40;53.90;;;;;;4945859;28;1962;-72
2023/07/07 12:32:02;;;;;;;;;;;21.40;52.70;;;;;;4968679;28;1449;-72
2023/07/07 12:34:39;;;;;;;;;;;21.40;51.30;;;;;;4969135;28;1994;-71
2023/07/07 12:37:21;;;;;;;;;;;21.40;52.70;;;;;;4943117;28;1483;-71
2023/07/07 12:39:53;;;;;;;;;;;21.40;52.30;;;;;;4969983;28;872;-71
2023/07/07 12:42:18;;;;;;;;;;;21.40;52.90;;;;;;4970360;28;924;-71
2023/07/07 12:44:45;;;;;;;;;;;21.40;52.90;;;;;;4969721;28;1302;-71
2023/07/07 12:47:37;;;;;;;;;;;21.40;50.00;;;;;;4971111;28;831;-71
2023/07/07 12:50:05;;;;;;;;;;;21.50;51.20;;;;;;4967743;28;997;-71
2023/07/07 12:52:40;;;;;;;;;;;21.50;52.10;;;;;;4974572;28;1350;-71
2023/07/07 12:55:17;;;;;;;;;;;21.50;52.60;;;;;;4972922;28;1902;-71
2023/07/07 12:57:56;;;;;;;;;;;21.50;52.70;;;;;;4974192;28;880;-71
2023/07/07 13:00:47;;;;;;;;;;;21.50;52.80;;;;;;4973664;28;922;-71
2023/07/07 13:03:14;;;;;;;;;;;21.50;53.30;;;;;;4971661;28;1275;-70
2023/07/07 13:05:46;;;;;;;;;;;21.50;53.20;;;;;;4972812;28;903;-71
2023/07/07 13:08:13;;;;;;;;;;;21.50;53.50;;;;;;4987297;28;1157;-71
2023/07/07 13:10:42;;;;;;;;;;;21.50;53.40;;;;;;4968459;28;1021;-71
2023/07/07 13:13:17;;;;;;;;;;;21.50;54.00;;;;;;4970927;28;1245;-71
2023/07/07 13:15:43;;;;;;;;;;;21.50;54.90;;;;;;4989371;28;1952;-71
2023/07/07 13:18:08;;;;;;;;;;;21.40;54.90;;;;;;4978078;28;1278;-71
2023/07/07 13:20:33;;;;;;;;;;;21.40;53.70;;;;;;4988990;28;852;-71
2023/07/07 13:23:07;;;;;;;;;;;21.40;53.30;;;;;;4972570;28;1360;-71
2023/07/07 13:25:37;;;;;;;;;;;21.40;53.30;;;;;;4956632;28;1217;-71
2023/07/07 13:28:03;;;;;;;;;;;21.50;53.40;;;;;;4973291;28;902;-71
2023/07/07 13:30:41;;;;;;;;;;;21.50;53.50;;;;;;4972304;28;904;-71
2023/07/07 13:33:13;;;;;;;;;;;21.50;52.90;;;;;;4988231;28;1372;-71
2023/07/07 13:35:41;;;;;;;;;;;21.50;53.40;;;;;;4972670;28;1907;-71
2023/07/07 13:38:08;;;;;;;;;;;21.50;53.70;;;;;;4988959;28;896;-71
2023/07/07 13:40:35;;;;;;;;;;;21.50;54.30;;;;;;4988688;28;835;-71
2023/07/07 13:43:00;;;;;;;;;;;21.50;54.40;;;;;;4987039;28;1273;-71
2023/07/07 13:45:26;;;;;;;;;;;21.50;55.20;;;;;;4988652;28;1015;-71
2023/07/07 13:47:51;;;;;;;;;;;21.40;57.00;;;;;;4987312;28;844;-71
2023/07/07 13:50:18;;;;;;;;;;;21.40;57.50;;;;;;4972557;28;844;-72
2023/07/07 13:52:46;;;;;;;;;;;21.30;57.70;;;;;;4972265;28;1348;-72
2023/07/07 13:55:12;;;;;;;;;;;21.30;57.90;;;;;;4972406;28;1902;-70
2023/07/07 13:57:38;;;;;;;;;;;21.30;58.00;;;;;;4970078;28;854;-71
2023/07/07 14:00:05;;;;;;;;;;;21.20;58.20;;;;;;4970604;28;998;-71
2023/07/07 14:02:31;;;;;;;;;;;21.20;58.10;;;;;;4959358;28;1350;-71
2023/07/07 14:04:59;;;;;;;;;;;21.20;58.70;;;;;;4972666;28;816;-71
2023/07/07 14:07:24;;;;;;;;;;;21.20;58.80;;;;;;4971604;28;865;-71
2023/07/07 14:09:50;;;;;;;;;;;21.20;58.80;;;;;;4972927;28;825;-70
2023/07/07 14:12:16;;;;;;;;;;;21.10;59.00;;;;;;4970586;28;834;-72
2023/07/07 14:14:42;;;;;;;;;;;21.10;58.90;;;;;;4972591;28;1927;-71
2023/07/07 14:17:11;;;;;;;;;;;21.10;58.90;;;;;;4986594;28;865;-70
2023/07/07 14:19:38;;;;;;;;;;;21.10;59.30;;;;;;4987478;28;1287;-72
2023/07/07 14:22:04;;;;;;;;;;;21.10;59.40;;;;;;4968108;28;832;-71
2023/07/07 14:24:30;;;;;;;;;;;21.10;59.40;;;;;;4970692;28;2444;-72
2023/07/07 14:26:56;;;;;;;;;;;21.10;59.60;;;;;;4971796;28;1382;-70
2023/07/07 14:29:26;;;;;;;;;;;21.10;59.70;;;;;;4969679;28;1375;-68
2023/07/07 14:31:52;;;;;;;;;;;21.00;59.60;;;;;;4969679;28;900;-72
2023/07/07 14:34:19;;;;;;;;;;;21.00;59.70;;;;;;4976392;28;1906;-71
2023/07/07 14:36:45;;;;;;;;;;;21.00;59.70;;;;;;4971040;28;812;-73
2023/07/07 14:39:27;;;;;;;;;;;21.00;59.80;;;;;;4971968;28;899;-69
2023/07/07 14:41:56;;;;;;;;;;;21.00;59.80;;;;;;4972350;28;1006;-72